createdAt,value
2022-10-17T00:01:07.174Z,81.53
2022-10-17T00:03:46.506Z,81.55
2022-10-17T00:06:22.392Z,81.58
2022-10-17T00:09:15.792Z,81.64
2022-10-17T00:12:02.260Z,81.74
2022-10-17T00:14:57.041Z,81.81
2022-10-17T00:17:43.334Z,81.85
2022-10-17T00:20:25.372Z,82.00
2022-10-17T00:23:01.178Z,81.93
2022-10-17T00:25:59.491Z,81.96
2022-10-17T00:28:56.140Z,82.04
2022-10-17T00:31:39.206Z,82.10
2022-10-17T00:34:31.425Z,82.19
2022-10-17T00:37:30.421Z,82.20
2022-10-17T00:40:11.389Z,82.18
2022-10-17T00:42:53.306Z,82.23
2022-10-17T00:45:30.407Z,82.19
2022-10-17T00:48:03.641Z,82.17
2022-10-17T00:50:34.211Z,81.99
2022-10-17T00:53:04.305Z,82.03
2022-10-17T00:55:36.320Z,82.09
2022-10-17T00:58:06.302Z,82.08
2022-10-17T01:00:34.386Z,82.16
2022-10-17T01:03:02.316Z,82.10
2022-10-17T01:05:30.353Z,82.20
2022-10-17T01:08:00.240Z,82.20
2022-10-17T01:10:39.357Z,82.05
2022-10-17T01:13:15.206Z,82.21
2022-10-17T01:16:15.805Z,82.25
2022-10-17T01:18:58.665Z,82.25
2022-10-17T01:21:46.543Z,82.34
2022-10-17T01:24:39.244Z,82.40
2022-10-17T01:27:18.254Z,82.47
2022-10-17T01:30:27.739Z,82.56
2022-10-17T01:33:18.728Z,82.64
2022-10-17T01:36:12.953Z,82.70
2022-10-17T01:39:14.933Z,82.79
2022-10-17T01:41:57.711Z,82.82
2022-10-17T01:44:46.395Z,82.87
2022-10-17T01:47:19.377Z,82.85
2022-10-17T01:49:51.773Z,82.87
2022-10-17T01:52:36.561Z,82.80
2022-10-17T01:55:11.920Z,82.83
2022-10-17T01:57:48.047Z,82.84
2022-10-17T02:00:21.579Z,82.89
2022-10-17T02:02:56.457Z,82.90
2022-10-17T02:05:29.325Z,82.91
2022-10-17T02:07:57.537Z,82.99
2022-10-17T02:10:49.411Z,83.01
2022-10-17T02:13:28.652Z,83.04
2022-10-17T02:16:05.287Z,83.05
2022-10-17T02:18:58.741Z,83.02
2022-10-17T02:21:44.198Z,83.05
2022-10-17T02:24:41.758Z,83.07
2022-10-17T02:27:37.802Z,83.00
2022-10-17T02:30:24.073Z,83.02
2022-10-17T02:33:11.690Z,83.00
2022-10-17T02:35:45.272Z,83.01
2022-10-17T02:38:16.689Z,83.08
2022-10-17T02:41:01.166Z,83.12
2022-10-17T02:44:27.313Z,83.20
2022-10-17T02:47:06.177Z,83.22
2022-10-17T02:49:41.332Z,83.28
2022-10-17T02:52:33.529Z,83.28
2022-10-17T02:55:17.787Z,83.33
2022-10-17T02:58:13.537Z,83.36
2022-10-17T03:00:47.821Z,83.34
2022-10-17T03:03:30.761Z,83.42
2022-10-17T03:06:02.625Z,83.37
2022-10-17T03:08:36.104Z,83.40
2022-10-17T03:11:48.763Z,83.43
2022-10-17T03:14:40.377Z,83.49
2022-10-17T03:17:25.897Z,83.54
2022-10-17T03:19:54.033Z,83.60
2022-10-17T03:22:22.083Z,83.65
2022-10-17T03:24:50.373Z,83.69
2022-10-17T03:27:18.473Z,83.72
2022-10-17T03:29:46.766Z,83.75
2022-10-17T03:32:15.961Z,83.85
2022-10-17T03:34:44.188Z,83.90
2022-10-17T03:37:12.305Z,83.93
2022-10-17T03:39:40.743Z,83.87
2022-10-17T03:42:09.116Z,83.88
2022-10-17T03:44:37.810Z,83.90
2022-10-17T03:47:08.159Z,83.91
2022-10-17T03:49:35.697Z,83.97
2022-10-17T03:52:03.709Z,83.96
2022-10-17T03:54:31.853Z,84.00
2022-10-17T03:57:02.501Z,83.98
2022-10-17T03:59:36.198Z,83.99
2022-10-17T04:02:06.135Z,84.04
2022-10-17T04:04:37.504Z,84.10
2022-10-17T04:13:36.870Z,84.05
2022-10-17T04:16:10.124Z,84.06
2022-10-17T04:18:40.446Z,83.99
2022-10-17T04:21:11.072Z,84.04
2022-10-17T04:23:39.670Z,84.01
2022-10-17T04:26:09.479Z,83.96
2022-10-17T04:31:10.064Z,84.10
2022-10-17T04:33:40.545Z,84.14
2022-10-17T04:36:16.267Z,84.13
2022-10-17T04:38:44.020Z,84.17
2022-10-17T04:41:16.750Z,84.13
2022-10-17T04:43:48.484Z,84.27
2022-10-17T04:46:16.085Z,84.28
2022-10-17T04:48:45.612Z,84.43
2022-10-17T04:51:18.797Z,84.49
2022-10-17T04:54:07.236Z,84.45
2022-10-17T04:56:36.555Z,84.53
2022-10-17T04:59:04.418Z,84.56
2022-10-17T05:01:33.654Z,84.81
2022-10-17T05:04:01.499Z,85.28
2022-10-17T05:06:31.076Z,85.57
2022-10-17T05:09:12.871Z,85.30
2022-10-17T05:11:43.147Z,85.19
2022-10-17T05:14:11.397Z,84.86
2022-10-17T05:16:39.462Z,84.62
2022-10-17T05:19:11.055Z,84.63
2022-10-17T05:21:41.150Z,84.38
2022-10-17T05:24:11.685Z,83.91
2022-10-17T05:26:40.875Z,82.98
2022-10-17T05:29:13.934Z,82.00
2022-10-17T05:31:44.135Z,80.48
2022-10-17T05:38:35.920Z,77.94
2022-10-17T05:41:10.107Z,75.73
2022-10-17T05:43:41.303Z,73.82
2022-10-17T05:46:10.304Z,72.53
2022-10-17T05:49:19.436Z,70.83
2022-10-17T05:52:12.881Z,69.81
2022-10-17T05:54:49.043Z,68.81
2022-10-17T06:03:54.837Z,64.65
2022-10-17T06:06:29.222Z,64.41
2022-10-17T06:09:01.147Z,64.90
2022-10-17T06:11:46.720Z,63.65
2022-10-17T06:14:44.684Z,64.34
2022-10-17T06:17:22.355Z,64.57
2022-10-17T06:22:54.239Z,64.72
2022-10-17T06:25:24.161Z,64.39
2022-10-17T06:30:22.584Z,63.69
2022-10-17T06:32:53.517Z,63.95
2022-10-17T06:35:21.961Z,64.01
2022-10-17T06:37:50.059Z,63.70
2022-10-17T06:40:18.826Z,62.81
2022-10-17T06:42:47.548Z,63.27
2022-10-17T06:45:26.230Z,63.08
2022-10-17T06:48:02.768Z,63.59
2022-10-17T06:50:44.383Z,62.96
2022-10-17T06:53:18.291Z,63.31
2022-10-17T06:55:54.940Z,63.93
2022-10-17T06:58:42.118Z,63.50
2022-10-17T07:01:13.473Z,63.54
2022-10-17T07:03:43.227Z,63.18
2022-10-17T07:06:11.385Z,62.26
2022-10-17T07:08:45.559Z,61.07
2022-10-17T07:11:18.721Z,62.39
2022-10-17T07:13:48.336Z,62.63
2022-10-17T07:16:16.825Z,62.31
2022-10-17T07:18:51.813Z,61.92
2022-10-17T07:21:20.650Z,61.10
2022-10-17T07:23:48.589Z,62.32
2022-10-17T07:26:18.466Z,62.39
2022-10-17T07:28:51.263Z,62.28
2022-10-17T07:31:26.734Z,62.10
2022-10-17T07:33:54.953Z,61.83
2022-10-17T07:36:23.422Z,60.61
2022-10-17T07:38:52.514Z,60.29
2022-10-17T07:41:21.934Z,60.33
2022-10-17T07:43:50.809Z,60.05
2022-10-17T07:46:20.531Z,59.37
2022-10-17T07:48:48.636Z,59.36
2022-10-17T07:51:19.387Z,59.69
2022-10-17T07:53:48.903Z,59.93
2022-10-17T07:56:17.470Z,59.32
2022-10-17T07:58:45.636Z,59.23
2022-10-17T08:01:15.391Z,59.12
2022-10-17T08:03:45.593Z,58.86
2022-10-17T08:06:13.656Z,57.31
2022-10-17T08:08:42.546Z,57.40
2022-10-17T08:11:13.606Z,56.69
2022-10-17T08:13:41.941Z,55.94
2022-10-17T08:16:13.097Z,55.70
2022-10-17T08:18:43.425Z,55.50
2022-10-17T08:21:12.879Z,55.26
2022-10-17T08:23:41.097Z,54.99
2022-10-17T08:26:12.417Z,54.46
2022-10-17T08:28:41.067Z,54.71
2022-10-17T08:31:18.275Z,54.47
2022-10-17T08:33:48.338Z,53.33
2022-10-17T08:36:20.501Z,52.68
2022-10-17T08:38:52.584Z,52.32
2022-10-17T08:41:48.598Z,52.34
2022-10-17T08:44:57.283Z,51.80
2022-10-17T08:47:32.563Z,52.41
2022-10-17T08:50:05.717Z,52.60
2022-10-17T08:53:06.301Z,51.87
2022-10-17T08:55:49.521Z,52.13
2022-10-17T08:58:29.721Z,50.82
2022-10-17T09:01:12.928Z,50.60
2022-10-17T09:04:10.175Z,51.44
2022-10-17T09:06:46.478Z,51.82
2022-10-17T09:09:22.825Z,51.67
2022-10-17T09:11:59.481Z,51.54
2022-10-17T09:15:22.162Z,51.40
2022-10-17T09:18:13.203Z,51.34
2022-10-17T09:20:49.469Z,50.45
2022-10-17T09:23:22.801Z,49.61
2022-10-17T09:25:59.096Z,50.37
2022-10-17T09:28:38.141Z,50.85
2022-10-17T09:31:20.531Z,50.55
2022-10-17T09:33:55.340Z,50.02
2022-10-17T09:36:37.189Z,50.57
2022-10-17T09:39:19.440Z,49.41
2022-10-17T09:41:56.696Z,49.39
2022-10-17T09:44:45.230Z,48.16
2022-10-17T09:47:47.625Z,47.69
2022-10-17T09:50:24.359Z,48.59
2022-10-17T09:52:59.186Z,48.32
2022-10-17T09:55:42.477Z,48.09
2022-10-17T09:58:15.616Z,48.61
2022-10-17T10:01:01.890Z,47.75
2022-10-17T10:06:43.759Z,47.99
2022-10-17T10:09:39.471Z,47.61
2022-10-17T10:12:55.372Z,48.04
2022-10-17T10:19:40.039Z,48.36
2022-10-17T10:22:38.811Z,47.41
2022-10-17T10:25:19.579Z,47.17
2022-10-17T13:11:55.548Z,46.59
2022-10-17T13:14:57.825Z,46.59
2022-10-17T13:18:43.979Z,46.54
2022-10-17T13:39:55.681Z,47.23
2022-10-17T13:42:30.364Z,47.53
2022-10-17T13:45:02.942Z,47.35
2022-10-17T13:47:42.425Z,47.29
2022-10-17T13:50:44.233Z,47.74
2022-10-17T13:59:56.186Z,48.06
2022-10-17T14:02:28.791Z,48.14
2022-10-17T14:05:18.779Z,48.33
2022-10-17T14:15:29.944Z,49.06
2022-10-17T14:18:21.317Z,49.09
2022-10-17T14:28:36.465Z,49.25
2022-10-17T14:51:56.965Z,50.94
2022-10-17T15:04:45.000Z,51.89
2022-10-17T15:07:18.369Z,52.10
2022-10-17T15:09:52.368Z,52.40
2022-10-17T15:12:25.490Z,52.66
2022-10-17T15:14:55.648Z,53.21
2022-10-17T15:17:31.578Z,53.87
2022-10-17T15:20:01.639Z,54.26
2022-10-17T15:22:34.349Z,54.80
2022-10-17T15:28:42.510Z,55.77
2022-10-17T15:31:16.776Z,56.04
2022-10-17T15:33:55.071Z,56.31
2022-10-17T15:36:41.144Z,56.75
2022-10-17T15:39:12.653Z,57.56
2022-10-17T15:41:43.784Z,57.87
2022-10-17T15:44:12.002Z,58.17
2022-10-17T15:46:41.131Z,58.51
2022-10-17T15:49:15.017Z,58.87
2022-10-17T15:51:43.280Z,59.28
2022-10-17T15:54:14.036Z,59.59
2022-10-17T15:56:43.463Z,59.94
2022-10-17T15:59:33.481Z,60.21
2022-10-17T16:02:33.408Z,60.52
2022-10-17T16:05:06.114Z,60.78
2022-10-17T16:08:05.128Z,61.58
2022-10-17T16:10:44.602Z,61.57
2022-10-17T16:13:26.522Z,61.90
2022-10-17T16:16:01.814Z,62.46
2022-10-17T16:22:47.569Z,63.13
2022-10-17T16:25:40.046Z,63.44
2022-10-17T16:28:17.990Z,63.69
2022-10-17T16:30:50.522Z,63.79
2022-10-17T16:33:18.465Z,64.04
2022-10-17T16:35:49.646Z,64.52
2022-10-17T16:38:20.234Z,64.76
2022-10-17T16:40:51.647Z,65.08
2022-10-17T16:43:19.711Z,65.42
2022-10-17T16:45:47.914Z,65.67
2022-10-17T16:48:17.177Z,65.81
2022-10-17T16:50:45.356Z,66.13
2022-10-17T16:53:13.259Z,66.61
2022-10-17T16:55:44.889Z,66.89
2022-10-17T16:58:17.416Z,67.28
2022-10-17T17:00:45.551Z,67.56
2022-10-17T17:03:13.603Z,67.96
2022-10-17T17:05:41.836Z,68.27
2022-10-17T17:08:25.959Z,68.64
2022-10-17T17:11:38.815Z,68.93
2022-10-17T17:14:10.535Z,69.21
2022-10-17T17:20:17.031Z,69.59
2022-10-17T17:22:56.669Z,70.24
2022-10-17T17:25:24.975Z,70.38
2022-10-17T17:27:52.903Z,70.56
2022-10-17T17:30:20.729Z,71.04
2022-10-17T17:32:48.452Z,71.21
2022-10-17T17:35:16.173Z,71.32
2022-10-17T17:37:45.804Z,71.39
2022-10-17T17:40:13.696Z,71.58
2022-10-17T17:42:47.305Z,71.67
2022-10-17T17:45:15.891Z,71.81
2022-10-17T17:47:43.413Z,72.11
2022-10-17T17:50:11.299Z,72.14
2022-10-17T17:52:46.658Z,72.28
2022-10-17T17:55:14.907Z,72.39
2022-10-17T17:57:42.937Z,72.60
2022-10-17T18:00:15.849Z,72.78
2022-10-17T18:02:45.460Z,72.86
2022-10-17T18:05:14.055Z,73.06
2022-10-17T18:07:42.094Z,73.28
2022-10-17T18:12:40.490Z,73.59
2022-10-17T18:15:09.047Z,73.73
2022-10-17T18:17:38.934Z,73.93
2022-10-17T18:20:08.225Z,74.05
2022-10-17T18:22:36.184Z,74.21
2022-10-17T18:25:06.070Z,74.36
2022-10-17T18:27:33.873Z,74.43
2022-10-17T18:30:01.535Z,74.56
2022-10-17T18:32:33.663Z,74.59
2022-10-17T18:35:01.746Z,74.58
2022-10-17T18:37:29.885Z,74.69
2022-10-17T18:39:58.164Z,74.82
2022-10-17T18:42:26.041Z,74.91
2022-10-17T18:44:53.959Z,75.19
2022-10-17T18:47:24.766Z,75.30
2022-10-17T18:49:53.058Z,75.30
2022-10-17T18:52:20.546Z,75.36
2022-10-17T18:54:48.518Z,75.39
2022-10-17T18:57:21.474Z,75.41
2022-10-17T18:59:49.023Z,75.41
2022-10-17T19:02:16.790Z,75.51
2022-10-17T19:04:44.956Z,75.49
2022-10-17T19:07:12.560Z,75.53
2022-10-17T19:09:40.275Z,75.63
2022-10-17T19:12:08.167Z,75.67
2022-10-17T19:14:38.170Z,75.73
2022-10-17T19:17:06.045Z,75.82
2022-10-17T19:19:34.572Z,75.89
2022-10-17T19:22:03.707Z,75.98
2022-10-17T19:24:31.614Z,76.05
2022-10-17T19:27:01.908Z,76.15
2022-10-17T19:29:31.374Z,76.27
2022-10-17T19:32:00.463Z,76.46
2022-10-17T19:34:28.705Z,76.60
2022-10-17T19:36:56.844Z,76.61
2022-10-17T19:39:26.015Z,76.97
2022-10-17T19:41:53.701Z,76.86
2022-10-17T19:44:21.462Z,76.82
2022-10-17T19:46:49.537Z,76.99
2022-10-17T19:49:17.851Z,77.06
2022-10-17T19:51:45.812Z,77.14
2022-10-17T19:54:14.701Z,77.18
2022-10-17T19:56:42.904Z,77.28
2022-10-17T19:59:14.714Z,77.39
2022-10-17T20:01:43.173Z,77.52
2022-10-17T20:04:12.300Z,77.55
2022-10-17T20:06:41.305Z,77.67
2022-10-17T20:09:13.957Z,77.64
2022-10-17T20:11:40.560Z,77.73
2022-10-17T20:14:08.620Z,77.75
2022-10-17T20:16:36.729Z,77.87
2022-10-17T20:19:08.974Z,78.05
2022-10-17T20:21:39.043Z,78.05
2022-10-17T20:24:11.737Z,78.12
2022-10-17T20:26:40.716Z,78.15
2022-10-17T20:29:16.612Z,78.24
2022-10-17T20:31:45.980Z,78.29
2022-10-17T20:34:16.186Z,78.31
2022-10-17T20:36:44.218Z,78.39
2022-10-17T20:39:14.392Z,78.47
2022-10-17T20:41:43.156Z,78.45
2022-10-17T20:44:12.090Z,78.59
2022-10-17T20:46:45.217Z,78.59
2022-10-17T20:49:14.625Z,78.76
2022-10-17T20:51:42.555Z,79.03
2022-10-17T20:54:11.312Z,79.15
2022-10-17T20:56:39.297Z,79.10
2022-10-17T20:59:11.837Z,79.19
2022-10-17T21:01:40.106Z,79.20
2022-10-17T21:04:40.594Z,79.25
2022-10-17T21:06:37.986Z,79.25
2022-10-17T21:09:06.876Z,79.24
2022-10-17T21:11:34.588Z,79.28
2022-10-17T21:14:05.640Z,79.23
2022-10-17T21:16:36.192Z,79.38
2022-10-17T21:19:05.655Z,79.54
2022-10-17T21:21:37.093Z,79.57
2022-10-17T21:24:11.534Z,79.63
2022-10-17T21:26:40.904Z,79.64
2022-10-17T21:29:13.281Z,79.73
2022-10-17T21:31:43.752Z,79.74
2022-10-17T21:34:21.443Z,79.80
2022-10-17T21:36:49.383Z,79.77
2022-10-17T21:39:17.844Z,79.87
2022-10-17T21:41:45.656Z,79.92
2022-10-17T21:44:20.778Z,79.92
2022-10-17T21:46:48.436Z,79.98
2022-10-17T21:49:20.348Z,80.17
2022-10-17T21:51:48.604Z,80.10
2022-10-17T21:54:18.436Z,80.06
2022-10-17T21:56:46.662Z,80.07
2022-10-17T21:59:14.355Z,80.17
2022-10-17T22:01:45.059Z,80.15
2022-10-17T22:04:16.834Z,80.20
2022-10-17T22:06:46.743Z,80.25
2022-10-17T22:09:19.912Z,80.32
2022-10-17T22:11:52.553Z,80.48
2022-10-17T22:14:24.121Z,80.46
2022-10-17T22:16:52.553Z,80.55
2022-10-17T22:19:24.483Z,80.61
2022-10-17T22:21:52.787Z,80.69
2022-10-17T22:26:48.939Z,80.67
2022-10-17T22:29:17.249Z,80.83
2022-10-17T22:31:45.369Z,80.78
2022-10-17T22:34:15.875Z,80.91
2022-10-17T22:36:44.202Z,80.99
2022-10-17T22:39:12.341Z,81.02
2022-10-17T22:41:40.354Z,81.08
2022-10-17T22:44:08.269Z,81.11
2022-10-17T22:46:36.301Z,81.17
2022-10-17T22:49:04.175Z,81.22
2022-10-17T22:51:32.070Z,81.24
2022-10-17T22:54:00.207Z,81.29
2022-10-17T22:56:28.035Z,81.26
2022-10-17T22:58:55.953Z,81.26
2022-10-17T23:01:25.473Z,81.20
2022-10-17T23:03:53.311Z,81.23
2022-10-17T23:06:21.637Z,81.24
2022-10-17T23:08:49.806Z,81.16
2022-10-17T23:11:17.941Z,81.18
2022-10-17T23:13:45.710Z,81.27
2022-10-17T23:16:13.848Z,81.34
2022-10-17T23:18:43.173Z,81.38
2022-10-17T23:21:11.452Z,81.35
2022-10-17T23:23:38.788Z,81.25
2022-10-17T23:26:10.645Z,81.38
2022-10-17T23:28:39.485Z,81.48
2022-10-17T23:31:16.406Z,81.56
2022-10-17T23:33:47.919Z,81.64
2022-10-17T23:36:20.385Z,81.73
2022-10-17T23:38:48.943Z,81.73
2022-10-17T23:41:17.201Z,81.70
2022-10-17T23:43:45.225Z,81.79
2022-10-17T23:46:13.561Z,81.85
2022-10-17T23:48:41.592Z,81.94
2022-10-17T23:51:10.416Z,81.90
2022-10-17T23:53:39.335Z,81.91
2022-10-17T23:56:09.407Z,81.90
2022-10-17T23:58:38.696Z,81.90
